Time;durP1;ratioP1;P1;durP2;ratioP2;P2;SDS_P1;SDS_P2;PMS_P1;PMS_P2;Temp;Humidity;BMP_temperature;BMP_pressure;BME280_temperature;BME280_humidity;BME280_pressure;Samples;Min_cycle;Max_cycle;Signal;HPM_P1;HPM_P2
2022/02/07 00:00:03;;;;;;;1.97;0.80;;;6.00;99.90;;;;;;5067362;28;20457;-87
2022/02/07 00:05:53;;;;;;;3.83;1.37;;;6.00;99.90;;;;;;5074840;28;20456;-86
2022/02/07 00:08:38;;;;;;;2.42;0.90;;;6.00;99.90;;;;;;5071066;28;20520;-86
2022/02/07 00:11:24;;;;;;;2.33;1.00;;;6.00;99.90;;;;;;5069942;28;20206;-86
2022/02/07 00:14:11;;;;;;;2.00;0.80;;;6.00;99.90;;;;;;5067273;28;20489;-86
2022/02/07 00:16:57;;;;;;;3.30;0.90;;;6.00;99.90;;;;;;5071935;28;20215;-86
2022/02/07 00:19:43;;;;;;;3.95;1.00;;;6.00;99.90;;;;;;5066609;28;20460;-87
2022/02/07 00:22:30;;;;;;;1.35;0.80;;;6.00;99.90;;;;;;5068237;28;20208;-86
2022/02/07 00:25:17;;;;;;;2.22;0.88;;;6.00;99.90;;;;;;5073573;28;20601;-86
2022/02/07 00:28:03;;;;;;;2.13;0.60;;;5.90;99.90;;;;;;5072550;28;20323;-86
2022/02/07 00:30:49;;;;;;;9.23;1.00;;;5.80;99.90;;;;;;5069015;28;20960;-87
2022/02/07 00:33:34;;;;;;;2.20;0.90;;;5.90;99.90;;;;;;5068483;28;20426;-86
2022/02/07 00:36:20;;;;;;;2.87;0.70;;;5.90;99.90;;;;;;5064807;28;20547;-87
2022/02/07 00:39:12;;;;;;;1.98;0.75;;;5.90;99.90;;;;;;5075592;28;20530;-87
2022/02/07 00:42:02;;;;;;;2.20;0.98;;;5.90;99.90;;;;;;5074329;28;20232;-86
2022/02/07 00:44:49;;;;;;;1.73;0.80;;;5.90;99.90;;;;;;5072115;28;20705;-87
2022/02/07 00:47:34;;;;;;;1.97;1.07;;;5.90;99.90;;;;;;5070731;28;20221;-86
2022/02/07 00:50:20;;;;;;;3.40;1.00;;;6.00;99.90;;;;;;5074360;28;20434;-85
2022/02/07 00:53:06;;;;;;;2.13;0.90;;;6.00;99.90;;;;;;5067437;28;20453;-86
2022/02/07 00:55:53;;;;;;;1.87;0.67;;;5.90;99.90;;;;;;5072264;28;20460;-86
2022/02/07 00:58:39;;;;;;;1.10;0.70;;;5.80;99.90;;;;;;5065491;28;20408;-87
2022/02/07 01:01:27;;;;;;;5.57;0.90;;;5.80;99.90;;;;;;5071616;28;21231;-85
2022/02/07 01:04:12;;;;;;;1.65;0.80;;;5.80;99.90;;;;;;5069405;28;20683;-85
2022/02/07 01:06:58;;;;;;;2.40;1.00;;;5.80;99.90;;;;;;5064934;28;20287;-86
2022/02/07 01:09:50;;;;;;;3.00;1.07;;;5.80;99.90;;;;;;5067151;28;20422;-86
2022/02/07 01:12:55;;;;;;;2.87;1.07;;;5.90;99.90;;;;;;5065468;28;20473;-85
2022/02/07 01:15:49;;;;;;;2.50;0.90;;;5.90;99.90;;;;;;5067416;28;20438;-85
2022/02/07 01:18:58;;;;;;;2.00;0.80;;;5.80;99.90;;;;;;5069867;28;20402;-86
2022/02/07 01:46:46;;;;;;;4.97;1.60;;;5.60;99.90;;;;;;5068039;28;20251;-86
2022/02/07 01:50:03;;;;;;;2.63;1.03;;;5.60;99.90;;;;;;5072489;28;20422;-86
2022/02/07 01:52:59;;;;;;;3.60;1.20;;;5.50;99.90;;;;;;5064926;28;20431;-86
2022/02/07 01:55:50;;;;;;;3.00;0.90;;;5.50;99.90;;;;;;5070046;28;20463;-86
2022/02/07 01:58:38;;;;;;;3.35;1.00;;;5.50;99.90;;;;;;5073662;28;20410;-86
2022/02/07 02:01:23;;;;;;;4.87;1.33;;;5.40;99.90;;;;;;5061975;28;20353;-86
2022/02/07 02:04:09;;;;;;;3.40;1.23;;;5.50;99.90;;;;;;5066805;28;20435;-85
2022/02/07 02:06:55;;;;;;;4.95;1.15;;;5.50;99.90;;;;;;5069598;28;20474;-86
2022/02/07 02:09:41;;;;;;;3.17;1.45;;;5.50;99.90;;;;;;5073428;28;20205;-86
2022/02/07 02:12:31;;;;;;;4.88;1.15;;;5.50;99.90;;;;;;5062903;28;20210;-85
2022/02/07 02:18:30;;;;;;;2.53;1.20;;;5.60;99.90;;;;;;5034739;28;20209;-74
2022/02/07 02:36:38;;;;;;;4.28;1.80;;;5.30;99.90;;;;;;5072691;27;20665;-73
2022/02/07 02:45:33;;;;;;;4.82;1.00;;;4.90;99.90;;;;;;5057669;28;20217;-73
2022/02/07 02:48:21;;;;;;;2.15;0.70;;;4.70;99.90;;;;;;5057705;28;20212;-73
2022/02/07 02:51:08;;;;;;;2.35;0.90;;;4.50;99.90;;;;;;5055834;28;20198;-73
2022/02/07 02:53:55;;;;;;;1.67;0.70;;;4.40;99.90;;;;;;5062991;28;20225;-73
2022/02/07 02:56:41;;;;;;;2.17;0.90;;;4.40;99.90;;;;;;5069476;28;20687;-73
2022/02/07 02:59:27;;;;;;;6.10;2.00;;;4.20;99.90;;;;;;5051016;28;20222;-73
2022/02/07 03:02:12;;;;;;;4.15;1.00;;;4.20;99.90;;;;;;5062065;28;20214;-73
2022/02/07 03:04:58;;;;;;;3.78;1.25;;;4.10;99.90;;;;;;5061558;28;20213;-73
2022/02/07 03:07:44;;;;;;;2.03;1.27;;;4.10;99.90;;;;;;5058873;28;20205;-72
2022/02/07 03:10:43;;;;;;;4.18;0.93;;;4.00;99.90;;;;;;5054844;28;20195;-73
2022/02/07 03:16:40;;;;;;;3.28;1.40;;;4.00;99.90;;;;;;5030897;28;20289;-73
2022/02/07 03:19:25;;;;;;;4.60;1.15;;;3.80;99.90;;;;;;5056526;28;20379;-73
2022/02/07 03:22:11;;;;;;;4.90;1.00;;;3.80;99.90;;;;;;5061880;28;20209;-73
2022/02/07 03:24:57;;;;;;;2.75;0.90;;;3.80;99.90;;;;;;5052575;28;20341;-73
2022/02/07 03:27:44;;;;;;;2.30;1.00;;;3.80;99.90;;;;;;5057457;28;20197;-73
2022/02/07 03:30:30;;;;;;;1.52;0.80;;;3.70;99.90;;;;;;5054307;28;20610;-73
2022/02/07 03:33:16;;;;;;;1.40;0.73;;;3.70;99.90;;;;;;5063861;28;20223;-73
2022/02/07 03:36:01;;;;;;;6.10;1.45;;;3.60;99.90;;;;;;5051933;28;20231;-73
2022/02/07 03:38:47;;;;;;;3.38;1.00;;;3.60;99.90;;;;;;5056493;28;20213;-73
2022/02/07 03:41:33;;;;;;;1.63;1.10;;;3.70;99.90;;;;;;5058852;28;20920;-72
2022/02/07 03:44:20;;;;;;;5.82;1.45;;;3.60;99.90;;;;;;5057744;28;20601;-72
2022/02/07 03:47:06;;;;;;;7.20;1.27;;;3.60;99.90;;;;;;5050393;28;20304;-73
2022/02/07 03:49:52;;;;;;;10.70;1.30;;;3.60;99.90;;;;;;5042721;28;20253;-72
2022/02/07 03:52:38;;;;;;;10.10;1.67;;;3.70;99.90;;;;;;5045176;28;20276;-73
2022/02/07 03:55:24;;;;;;;5.10;1.17;;;3.70;99.90;;;;;;5047816;28;20323;-73
2022/02/07 03:58:10;;;;;;;7.50;1.77;;;3.70;99.90;;;;;;5046676;28;20600;-72
2022/02/07 04:00:58;;;;;;;6.82;1.45;;;3.80;99.90;;;;;;5047892;28;20206;-72
2022/02/07 04:03:44;;;;;;;2.97;1.17;;;3.80;99.90;;;;;;5050682;28;20234;-73
2022/02/07 04:06:29;;;;;;;7.72;2.10;;;3.90;99.90;;;;;;5042545;28;20262;-73
2022/02/07 04:09:19;;;;;;;3.90;1.05;;;3.90;99.90;;;;;;5040064;28;20210;-73
2022/02/07 04:12:10;;;;;;;5.57;1.58;;;3.90;99.90;;;;;;5042307;28;20265;-73
2022/02/07 04:14:57;;;;;;;6.07;1.20;;;3.90;99.90;;;;;;5046448;28;20258;-73
2022/02/07 04:17:51;;;;;;;4.93;1.55;;;4.00;99.90;;;;;;5043766;28;20810;-73
2022/02/07 04:20:38;;;;;;;2.45;1.25;;;3.90;99.90;;;;;;5038771;28;20346;-73
2022/02/07 04:23:24;;;;;;;5.80;1.48;;;3.90;99.90;;;;;;5048676;28;20206;-73
2022/02/07 04:26:10;;;;;;;4.05;1.20;;;3.80;99.90;;;;;;5051757;28;20203;-73
2022/02/07 04:28:55;;;;;;;2.80;1.05;;;3.80;99.90;;;;;;5048526;28;20646;-73
2022/02/07 04:31:41;;;;;;;4.13;1.30;;;3.90;99.90;;;;;;5047092;28;20207;-73
2022/02/07 04:34:28;;;;;;;4.82;1.50;;;3.90;99.90;;;;;;5043744;28;20245;-73
2022/02/07 04:37:14;;;;;;;8.95;1.30;;;3.90;99.90;;;;;;5052644;28;20788;-72
2022/02/07 04:40:00;;;;;;;10.68;1.30;;;3.90;99.90;;;;;;5047683;28;20204;-73
2022/02/07 04:42:45;;;;;;;3.33;1.50;;;3.90;99.90;;;;;;5042441;28;20224;-73
2022/02/07 04:45:48;;;;;;;5.05;1.15;;;4.00;99.90;;;;;;5046258;28;20216;-74
2022/02/07 04:48:55;;;;;;;3.78;1.65;;;4.10;99.90;;;;;;5044515;28;20206;-73
2022/02/07 04:52:06;;;;;;;6.22;1.20;;;4.20;99.90;;;;;;5043943;28;20667;-74
2022/02/07 04:55:00;;;;;;;3.47;1.50;;;4.20;99.90;;;;;;5044982;28;20219;-74
2022/02/07 04:57:58;;;;;;;3.25;1.40;;;4.20;99.90;;;;;;5042805;28;20203;-74
2022/02/07 05:00:50;;;;;;;3.70;1.25;;;4.10;99.90;;;;;;5048695;28;20215;-74
2022/02/07 05:03:42;;;;;;;6.50;1.55;;;4.00;99.90;;;;;;5047532;28;20203;-73
2022/02/07 05:15:38;;;;;;;3.33;1.65;;;4.10;99.90;;;;;;5045168;28;20238;-74
2022/02/07 05:18:26;;;;;;;5.40;1.65;;;4.10;99.90;;;;;;5037788;28;20763;-74
2022/02/07 05:21:12;;;;;;;4.25;1.20;;;4.10;99.90;;;;;;5042938;28;20222;-74
2022/02/07 05:23:58;;;;;;;5.72;1.55;;;4.10;99.90;;;;;;5044605;28;20361;-74
2022/02/07 05:26:46;;;;;;;6.38;1.73;;;4.10;99.90;;;;;;5044720;28;20242;-74
2022/02/07 05:29:31;;;;;;;8.57;1.73;;;4.20;99.90;;;;;;5043495;28;20283;-74
2022/02/07 05:32:17;;;;;;;5.70;1.60;;;4.20;99.90;;;;;;5039723;28;20569;-73
2022/02/07 05:35:03;;;;;;;7.38;1.60;;;4.20;99.90;;;;;;5046375;28;20315;-74
2022/02/07 05:37:49;;;;;;;9.07;2.30;;;4.10;99.90;;;;;;5043163;28;20194;-73
2022/02/07 05:40:40;;;;;;;7.25;1.45;;;4.10;99.90;;;;;;5041574;28;20207;-74
2022/02/07 05:43:27;;;;;;;4.93;2.22;;;4.00;99.90;;;;;;5044885;28;20241;-74
2022/02/07 05:46:13;;;;;;;11.73;1.98;;;4.00;99.90;;;;;;5040562;28;20638;-73
2022/02/07 05:48:59;;;;;;;10.77;1.92;;;4.00;99.90;;;;;;5047064;28;20195;-74
2022/02/07 05:51:44;;;;;;;10.65;2.67;;;4.00;99.90;;;;;;5044342;28;20560;-74
2022/02/07 05:54:30;;;;;;;9.05;1.90;;;4.10;99.90;;;;;;5047220;28;20304;-74
2022/02/07 05:57:16;;;;;;;8.95;1.90;;;4.10;99.90;;;;;;5038868;28;20245;-73
2022/02/07 06:00:04;;;;;;;7.35;1.83;;;4.20;99.90;;;;;;5043396;28;20423;-74
2022/02/07 06:02:50;;;;;;;8.18;2.30;;;4.30;99.90;;;;;;5044538;28;20346;-74
2022/02/07 06:05:35;;;;;;;4.35;1.95;;;4.20;99.90;;;;;;5046056;28;20225;-74
2022/02/07 06:08:21;;;;;;;5.45;1.85;;;4.20;99.90;;;;;;5040505;28;20346;-74
2022/02/07 06:11:08;;;;;;;9.20;2.05;;;4.30;99.90;;;;;;5053325;28;20280;-74
2022/02/07 06:13:54;;;;;;;15.05;5.15;;;4.20;99.90;;;;;;5047336;28;20222;-74
2022/02/07 06:16:41;;;;;;;11.10;2.38;;;4.20;99.90;;;;;;5036212;28;20220;-74
2022/02/07 06:19:26;;;;;;;6.97;2.15;;;4.20;99.90;;;;;;5045285;28;20205;-74
2022/02/07 06:22:12;;;;;;;5.88;1.95;;;4.20;99.90;;;;;;5048859;28;20260;-74
2022/02/07 06:24:58;;;;;;;8.93;2.05;;;4.20;99.90;;;;;;5041328;28;20223;-74
2022/02/07 06:27:44;;;;;;;5.20;1.40;;;4.20;99.90;;;;;;5041497;28;20321;-74
2022/02/07 06:30:29;;;;;;;5.65;2.60;;;4.20;99.90;;;;;;5044001;28;20215;-74
2022/02/07 06:33:16;;;;;;;10.48;1.95;;;4.10;99.90;;;;;;5046041;28;20205;-73
2022/02/07 06:36:02;;;;;;;8.63;2.00;;;4.10;99.90;;;;;;5046489;28;20230;-74
2022/02/07 06:38:48;;;;;;;6.57;1.40;;;4.10;99.90;;;;;;5044430;28;20578;-74
2022/02/07 06:41:34;;;;;;;7.43;2.03;;;3.90;99.90;;;;;;5043385;28;20284;-73
2022/02/07 06:44:19;;;;;;;14.05;2.20;;;3.90;99.90;;;;;;5045176;28;20468;-74
2022/02/07 06:47:05;;;;;;;7.43;2.15;;;4.00;99.90;;;;;;5035769;28;20205;-74
2022/02/07 06:49:53;;;;;;;4.72;2.13;;;4.00;99.90;;;;;;5048276;28;20695;-74
2022/02/07 06:52:38;;;;;;;6.68;2.90;;;4.00;99.90;;;;;;5046232;28;20200;-74
2022/02/07 06:55:24;;;;;;;5.22;1.63;;;4.10;99.90;;;;;;5044547;28;20231;-74
2022/02/07 06:58:10;;;;;;;9.77;2.60;;;4.10;99.90;;;;;;5046035;28;20661;-74
2022/02/07 07:00:56;;;;;;;11.65;1.63;;;4.10;99.90;;;;;;5045843;28;20216;-74
2022/02/07 07:03:44;;;;;;;7.50;2.15;;;4.10;99.90;;;;;;5044336;28;20210;-74
2022/02/07 07:06:31;;;;;;;5.65;1.73;;;4.10;99.90;;;;;;5043606;28;20554;-73
2022/02/07 07:09:17;;;;;;;10.98;2.83;;;4.10;99.90;;;;;;5043233;28;20289;-74
2022/02/07 07:12:06;;;;;;;10.17;2.50;;;4.20;99.90;;;;;;5042441;28;20210;-74
2022/02/07 07:15:02;;;;;;;12.60;2.63;;;4.20;99.90;;;;;;5043289;28;20555;-74
2022/02/07 07:17:47;;;;;;;10.73;2.15;;;4.20;99.90;;;;;;5046112;28;20417;-74
2022/02/07 07:20:34;;;;;;;8.07;2.78;;;4.20;99.90;;;;;;5046413;28;20642;-74
2022/02/07 07:23:22;;;;;;;11.85;3.58;;;4.30;99.90;;;;;;5053529;28;20250;-74
2022/02/07 07:26:07;;;;;;;22.95;8.13;;;4.30;99.90;;;;;;5043671;28;20198;-74
2022/02/07 07:28:54;;;;;;;6.97;2.28;;;4.20;99.90;;;;;;5051356;28;20206;-73
2022/02/07 07:31:44;;;;;;;5.80;2.22;;;4.20;99.90;;;;;;5049742;28;20214;-74
2022/02/07 07:34:30;;;;;;;10.15;2.20;;;4.30;99.90;;;;;;5047035;28;20720;-74
2022/02/07 07:37:16;;;;;;;17.27;4.20;;;4.40;99.90;;;;;;5051687;28;20254;-74
2022/02/07 07:40:04;;;;;;;9.52;5.50;;;4.40;99.90;;;;;;5048909;28;20207;-73
2022/02/07 07:42:53;;;;;;;18.20;6.63;;;4.40;99.90;;;;;;5048236;28;20686;-73
2022/02/07 07:45:45;;;;;;;11.73;3.28;;;4.40;99.90;;;;;;5045204;28;20211;-74
2022/02/07 07:48:33;;;;;;;12.65;5.05;;;4.40;99.90;;;;;;5051259;28;20206;-76
2022/02/07 07:51:33;;;;;;;14.68;4.95;;;4.50;99.90;;;;;;5045843;28;20280;-74
2022/02/07 07:54:25;;;;;;;13.82;5.40;;;4.50;99.90;;;;;;5042383;28;20241;-74
2022/02/07 08:03:28;;;;;;;7.72;2.65;;;4.70;99.90;;;;;;5054469;28;20215;-73
2022/02/07 08:06:17;;;;;;;4.43;2.28;;;4.60;99.90;;;;;;5040423;28;20203;-73
2022/02/07 08:12:04;;;;;;;19.00;2.75;;;4.60;99.90;;;;;;5046177;28;20199;-73
2022/02/07 08:14:52;;;;;;;9.50;2.60;;;4.70;99.90;;;;;;5044631;28;20226;-73
2022/02/07 08:17:37;;;;;;;17.07;3.80;;;4.80;99.90;;;;;;5042941;28;20349;-73
2022/02/07 08:20:23;;;;;;;21.05;7.10;;;4.80;99.90;;;;;;5052362;28;20953;-73
2022/02/07 08:23:10;;;;;;;21.02;10.95;;;4.90;99.90;;;;;;5049995;28;20219;-73
2022/02/07 08:25:57;;;;;;;11.30;3.47;;;4.90;99.90;;;;;;5047376;28;20199;-73
2022/02/07 08:28:43;;;;;;;9.07;3.65;;;5.00;99.90;;;;;;5050197;28;21050;-72
2022/02/07 08:31:30;;;;;;;15.73;4.60;;;5.00;99.90;;;;;;5054977;28;20204;-73
2022/02/07 08:34:16;;;;;;;11.82;2.50;;;5.10;99.90;;;;;;5051914;28;20236;-74
2022/02/07 08:37:02;;;;;;;24.20;7.35;;;5.10;99.90;;;;;;5035995;28;20211;-70
2022/02/07 08:39:48;;;;;;;30.73;9.50;;;5.10;99.90;;;;;;5048963;28;20262;-72
2022/02/07 08:42:33;;;;;;;12.57;3.70;;;5.20;99.90;;;;;;5056782;28;20598;-71
2022/02/07 08:45:19;;;;;;;13.10;2.72;;;5.30;99.90;;;;;;5049769;28;20227;-70
2022/02/07 08:48:07;;;;;;;9.07;2.67;;;5.30;99.90;;;;;;5049454;28;20195;-73
2022/02/07 08:50:55;;;;;;;8.02;2.58;;;5.30;99.90;;;;;;5044437;28;20595;-73
2022/02/07 08:53:43;;;;;;;7.90;2.40;;;5.30;99.90;;;;;;5048541;28;20211;-73
2022/02/07 08:56:40;;;;;;;12.43;4.07;;;5.40;99.90;;;;;;5039264;28;20774;-72
2022/02/07 08:59:34;;;;;;;7.95;2.90;;;5.30;99.90;;;;;;5046279;28;20219;-72
2022/02/07 09:02:35;;;;;;;9.30;2.17;;;5.40;99.90;;;;;;5046297;28;20681;-72
2022/02/07 09:05:40;;;;;;;9.13;2.40;;;5.40;99.90;;;;;;5039985;28;20230;-72
2022/02/07 09:08:50;;;;;;;9.45;2.45;;;5.50;99.90;;;;;;5044813;28;20513;-72
2022/02/07 09:11:38;;;;;;;6.57;2.65;;;5.60;99.90;;;;;;5039763;28;20712;-71
2022/02/07 09:14:25;;;;;;;9.10;2.35;;;5.60;99.90;;;;;;5040185;28;20745;-71
2022/02/07 09:17:11;;;;;;;11.20;2.00;;;5.60;99.90;;;;;;5045264;28;20273;-70
2022/02/07 09:19:57;;;;;;;10.60;3.17;;;5.60;99.90;;;;;;5045868;28;20462;-71
2022/02/07 09:22:44;;;;;;;8.05;2.35;;;5.60;99.90;;;;;;5042206;28;20194;-70
2022/02/07 09:25:30;;;;;;;5.20;1.70;;;5.70;99.90;;;;;;5042061;28;20313;-70
2022/02/07 09:28:16;;;;;;;10.25;3.65;;;5.70;99.90;;;;;;5038807;28;20439;-70
2022/02/07 09:31:02;;;;;;;11.23;2.80;;;5.80;99.90;;;;;;5049327;28;20281;-70
2022/02/07 09:33:48;;;;;;;11.70;3.70;;;5.90;99.90;;;;;;5037586;28;20516;-70
2022/02/07 09:36:33;;;;;;;8.37;2.37;;;5.90;99.90;;;;;;5042379;28;20222;-70
2022/02/07 09:39:23;;;;;;;9.17;1.90;;;5.90;99.90;;;;;;5042165;28;20644;-70
2022/02/07 09:42:08;;;;;;;9.07;3.00;;;6.00;99.90;;;;;;5039862;28;20912;-69
2022/02/07 09:45:05;;;;;;;13.83;2.43;;;6.10;99.90;;;;;;5045111;28;20466;-71
2022/02/07 09:47:51;;;;;;;7.57;2.33;;;6.00;99.90;;;;;;5047969;28;20434;-70
2022/02/07 09:50:38;;;;;;;32.30;6.90;;;6.00;99.90;;;;;;5057760;28;20419;-71
2022/02/07 09:53:27;;;;;;;13.38;2.25;;;6.20;99.90;;;;;;5041743;28;20451;-72
2022/02/07 09:56:15;;;;;;;8.23;2.23;;;6.30;99.90;;;;;;5049337;28;20208;-70
2022/02/07 09:59:01;;;;;;;9.40;2.67;;;6.30;99.90;;;;;;5049622;28;20472;-71
2022/02/07 10:01:49;;;;;;;7.40;1.77;;;6.20;99.90;;;;;;5044217;28;20220;-71
2022/02/07 10:04:38;;;;;;;12.90;3.17;;;6.30;99.90;;;;;;5043745;28;20470;-71
2022/02/07 10:07:32;;;;;;;16.93;2.40;;;6.30;99.90;;;;;;5046293;28;20568;-70
2022/02/07 10:10:27;;;;;;;8.03;2.23;;;6.30;99.90;;;;;;5056695;28;20420;-71
2022/02/07 10:13:22;;;;;;;11.77;2.20;;;6.40;99.90;;;;;;5040973;28;20544;-71
2022/02/07 10:16:24;;;;;;;9.75;2.30;;;6.50;99.90;;;;;;5045208;28;20413;-71
2022/02/07 10:19:28;;;;;;;15.80;5.93;;;6.50;99.90;;;;;;5042057;28;20201;-71
2022/02/07 10:38:15;;;;;;;5.43;2.30;;;6.60;99.90;;;;;;5046121;28;20473;-71
2022/02/07 10:41:21;;;;;;;12.63;2.53;;;6.60;99.90;;;;;;5039014;28;20516;-71
2022/02/07 10:44:33;;;;;;;16.40;2.17;;;6.60;99.90;;;;;;5042163;28;20595;-71
2022/02/07 10:47:23;;;;;;;12.40;2.90;;;6.60;99.90;;;;;;5048158;28;20338;-72
2022/02/07 10:50:14;;;;;;;11.73;2.07;;;6.60;99.90;;;;;;5049567;28;20425;-71
2022/02/07 10:53:00;;;;;;;7.53;4.07;;;6.60;99.90;;;;;;5037911;28;20445;-72
2022/02/07 10:55:46;;;;;;;18.17;3.70;;;6.60;99.90;;;;;;5045238;28;20470;-71
2022/02/07 10:58:32;;;;;;;7.10;2.77;;;6.60;99.90;;;;;;5046552;28;20485;-71
2022/02/07 11:01:27;;;;;;;8.37;3.00;;;6.60;99.90;;;;;;5050210;28;20532;-71
2022/02/07 11:04:17;;;;;;;12.57;2.83;;;6.50;99.90;;;;;;5051336;28;20476;-72
2022/02/07 11:07:03;;;;;;;14.47;2.80;;;6.60;99.90;;;;;;5054599;28;20571;-71
2022/02/07 11:10:04;;;;;;;12.50;2.40;;;6.50;99.90;;;;;;5051051;28;20580;-72
2022/02/07 11:16:13;;;;;;;15.30;2.78;;;6.50;99.90;;;;;;5023769;28;20450;-71
2022/02/07 11:19:11;;;;;;;17.00;2.30;;;6.60;99.90;;;;;;5046647;28;20199;-71
2022/02/07 11:22:18;;;;;;;10.57;1.87;;;6.60;99.90;;;;;;5042200;28;20581;-70
2022/02/07 11:25:25;;;;;;;11.40;3.40;;;6.60;99.90;;;;;;5048072;28;20467;-71
2022/02/07 11:28:18;;;;;;;11.13;2.70;;;6.70;99.90;;;;;;5051938;28;20421;-72
2022/02/07 11:31:06;;;;;;;11.67;1.97;;;6.70;99.90;;;;;;5043019;28;20626;-71
2022/02/07 11:33:53;;;;;;;9.60;2.43;;;6.80;99.90;;;;;;5042863;28;20819;-71
2022/02/07 11:36:41;;;;;;;5.67;2.30;;;6.80;99.90;;;;;;5046767;28;20439;-71
2022/02/07 11:39:42;;;;;;;9.50;2.37;;;6.80;99.90;;;;;;5049199;28;20425;-71
2022/02/07 11:42:28;;;;;;;9.20;1.90;;;6.90;99.90;;;;;;5042944;28;20576;-72
2022/02/07 11:45:15;;;;;;;15.13;2.10;;;7.10;99.90;;;;;;5047261;28;20286;-71
2022/02/07 11:48:10;;;;;;;6.60;2.03;;;7.20;99.90;;;;;;5046985;28;20460;-69
2022/02/07 11:50:58;;;;;;;10.53;2.73;;;7.30;99.90;;;;;;5036682;28;20443;-73
2022/02/07 11:53:49;;;;;;;13.53;2.00;;;7.40;99.90;;;;;;5043536;28;20454;-73
2022/02/07 11:56:41;;;;;;;8.40;2.57;;;7.40;99.90;;;;;;5047816;28;20492;-73
2022/02/07 11:59:39;;;;;;;7.83;2.70;;;7.40;99.90;;;;;;5041825;28;20455;-74
2022/02/07 12:02:35;;;;;;;9.43;2.87;;;7.40;99.90;;;;;;5039695;28;20782;-73
2022/02/07 12:05:22;;;;;;;5.97;2.60;;;7.40;99.90;;;;;;5036359;28;21001;-73
2022/02/07 12:08:14;;;;;;;9.83;2.37;;;7.30;99.90;;;;;;5042915;28;20453;-72
2022/02/07 12:11:09;;;;;;;8.87;2.23;;;7.20;99.90;;;;;;5037588;28;20514;-73
2022/02/07 12:13:55;;;;;;;8.30;2.10;;;7.20;99.90;;;;;;5035794;28;20456;-74
2022/02/07 12:16:47;;;;;;;11.23;1.77;;;7.30;99.90;;;;;;5042187;28;20476;-72
2022/02/07 12:19:37;;;;;;;19.20;3.00;;;7.30;99.90;;;;;;5041901;28;20446;-72
2022/02/07 12:22:23;;;;;;;29.53;4.40;;;7.20;99.90;;;;;;5038825;28;20421;-72
2022/02/07 12:25:11;;;;;;;10.50;2.43;;;7.20;99.90;;;;;;5041665;28;20470;-72
2022/02/07 12:27:59;;;;;;;13.37;4.00;;;7.10;99.90;;;;;;5036057;28;21149;-73
2022/02/07 12:30:58;;;;;;;8.40;2.43;;;7.20;99.90;;;;;;5035908;28;20464;-74
2022/02/07 12:33:46;;;;;;;8.60;3.10;;;7.30;99.90;;;;;;5037579;28;20893;-73
2022/02/07 12:36:33;;;;;;;9.73;2.80;;;7.30;99.90;;;;;;5040580;28;20451;-73
2022/02/07 12:39:19;;;;;;;8.20;2.60;;;7.50;99.90;;;;;;5042879;28;20466;-73
2022/02/07 12:42:09;;;;;;;8.57;2.37;;;7.70;99.90;;;;;;5032497;28;20436;-72
2022/02/07 12:45:00;;;;;;;8.40;2.70;;;7.80;99.90;;;;;;5049700;28;20516;-72
2022/02/07 12:47:49;;;;;;;10.30;2.17;;;7.90;99.90;;;;;;5050022;28;20439;-76
2022/02/07 12:50:35;;;;;;;24.27;2.53;;;7.80;99.90;;;;;;5045674;28;20420;-76
2022/02/07 12:53:23;;;;;;;8.27;1.80;;;7.80;99.90;;;;;;5046413;28;20805;-74
2022/02/07 12:56:09;;;;;;;15.30;2.73;;;7.90;99.90;;;;;;5045975;28;20416;-71
2022/02/07 12:58:55;;;;;;;13.60;2.30;;;8.00;99.90;;;;;;5045027;28;20449;-72
2022/02/07 13:01:43;;;;;;;7.33;2.33;;;8.10;99.90;;;;;;5039027;28;20442;-72
2022/02/07 13:04:28;;;;;;;4.43;1.57;;;8.20;99.90;;;;;;5040487;28;20553;-74
2022/02/07 13:07:20;;;;;;;7.00;2.60;;;8.20;99.90;;;;;;5038988;28;20444;-73
2022/02/07 13:10:06;;;;;;;11.73;1.80;;;8.20;99.90;;;;;;5041900;28;20447;-73
2022/02/07 13:13:07;;;;;;;10.20;2.00;;;8.10;99.90;;;;;;5038836;28;20576;-73
2022/02/07 13:15:52;;;;;;;9.43;2.50;;;7.90;99.90;;;;;;5045066;28;20409;-74
2022/02/07 13:18:41;;;;;;;7.30;1.87;;;7.90;99.90;;;;;;5042400;28;20535;-74
2022/02/07 13:21:26;;;;;;;12.43;2.23;;;7.90;99.90;;;;;;5040523;28;20496;-73
2022/02/07 13:24:15;;;;;;;5.73;2.03;;;7.80;99.90;;;;;;5041868;28;20554;-72
2022/02/07 13:27:04;;;;;;;5.10;1.90;;;7.90;99.90;;;;;;5036493;28;20451;-73
2022/02/07 13:29:53;;;;;;;6.40;2.30;;;7.80;99.90;;;;;;5041337;28;20472;-71
2022/02/07 13:32:41;;;;;;;5.63;1.50;;;7.70;99.90;;;;;;5043807;28;20976;-72
2022/02/07 13:35:37;;;;;;;6.10;1.83;;;7.80;99.90;;;;;;5043950;28;20528;-72
2022/02/07 13:38:24;;;;;;;8.93;1.63;;;7.80;99.90;;;;;;5038799;28;20432;-73
2022/02/07 13:41:09;;;;;;;8.87;1.90;;;7.90;99.90;;;;;;5036114;28;20436;-72
2022/02/07 13:43:59;;;;;;;6.43;1.77;;;8.20;99.90;;;;;;5044532;28;20429;-72
2022/02/07 13:46:47;;;;;;;11.80;2.13;;;8.60;99.90;;;;;;5049991;28;20425;-72
2022/02/07 13:49:33;;;;;;;6.60;1.60;;;9.10;99.90;;;;;;5038680;28;20481;-71
2022/02/07 13:52:20;;;;;;;5.33;1.70;;;9.20;98.20;;;;;;5051395;28;20435;-71
2022/02/07 13:55:19;;;;;;;10.00;1.57;;;9.10;95.30;;;;;;5052846;28;20465;-72
2022/02/07 13:58:07;;;;;;;10.60;2.33;;;9.10;95.70;;;;;;5044975;28;20445;-72
2022/02/07 14:00:58;;;;;;;8.77;2.63;;;8.90;94.70;;;;;;5037561;28;20425;-72
2022/02/07 14:03:48;;;;;;;30.80;2.40;;;8.70;94.90;;;;;;5052967;28;20411;-74
2022/02/07 14:06:34;;;;;;;7.20;1.70;;;8.50;95.60;;;;;;5042419;28;20975;-72
2022/02/07 14:09:28;;;;;;;6.67;1.53;;;8.30;96.00;;;;;;5040486;28;20335;-75
2022/02/07 14:12:14;;;;;;;6.40;1.87;;;8.20;94.30;;;;;;5036630;28;20867;-75
2022/02/07 14:15:01;;;;;;;4.80;1.77;;;8.20;96.40;;;;;;5047932;28;20444;-72
2022/02/07 14:17:47;;;;;;;9.43;1.83;;;8.10;96.90;;;;;;5041611;28;20436;-71
2022/02/07 14:20:35;;;;;;;5.77;1.40;;;8.00;96.20;;;;;;5034165;28;20480;-72
2022/02/07 14:23:21;;;;;;;7.73;1.60;;;8.20;97.30;;;;;;5045024;28;20909;-73
2022/02/07 14:26:14;;;;;;;10.00;2.00;;;8.30;93.30;;;;;;5046549;28;20448;-74
2022/02/07 14:28:59;;;;;;;6.47;1.60;;;8.30;95.10;;;;;;5044099;28;20425;-74
2022/02/07 14:31:45;;;;;;;8.73;2.00;;;8.50;94.50;;;;;;5039708;28;20472;-72
2022/02/07 14:34:31;;;;;;;7.37;1.53;;;8.60;93.10;;;;;;5051350;28;20468;-72
2022/02/07 14:37:18;;;;;;;11.07;1.67;;;8.60;87.30;;;;;;5038634;28;20480;-72
2022/02/07 14:40:05;;;;;;;8.83;1.87;;;8.50;85.60;;;;;;5044391;28;20817;-72
2022/02/07 14:42:54;;;;;;;6.20;2.00;;;8.30;84.30;;;;;;5043211;28;20417;-72
2022/02/07 14:45:43;;;;;;;9.00;1.53;;;8.20;88.20;;;;;;5049767;28;20433;-71
2022/02/07 14:48:29;;;;;;;11.10;2.30;;;8.10;88.50;;;;;;5039117;28;20517;-75
2022/02/07 14:51:16;;;;;;;6.10;1.63;;;8.10;89.20;;;;;;5047682;28;20451;-75
2022/02/07 14:54:03;;;;;;;5.23;2.07;;;8.00;89.00;;;;;;5042025;28;21003;-75
2022/02/07 14:56:49;;;;;;;9.80;2.07;;;7.90;87.30;;;;;;5049185;28;20956;-75
2022/02/07 14:59:36;;;;;;;11.47;1.73;;;7.80;87.80;;;;;;5039192;28;20975;-74
2022/02/07 15:02:24;;;;;;;4.87;1.57;;;7.80;88.40;;;;;;5042557;28;20520;-75
2022/02/07 15:05:11;;;;;;;5.20;1.80;;;7.70;88.90;;;;;;5033052;28;20457;-73
2022/02/07 15:07:58;;;;;;;4.60;1.87;;;7.70;89.30;;;;;;5050847;28;20422;-73
2022/02/07 15:10:44;;;;;;;3.13;1.50;;;7.70;90.00;;;;;;5041763;28;20447;-73
2022/02/07 15:13:33;;;;;;;8.33;2.17;;;7.70;90.80;;;;;;5045552;28;20413;-75
2022/02/07 15:16:23;;;;;;;6.90;2.13;;;7.70;91.10;;;;;;5041667;28;20522;-72
2022/02/07 15:19:10;;;;;;;5.50;2.70;;;7.70;91.10;;;;;;5044298;28;20440;-73
2022/02/07 15:21:57;;;;;;;14.37;4.20;;;7.70;91.10;;;;;;5047902;28;20797;-71
2022/02/07 15:24:42;;;;;;;9.53;3.93;;;7.70;91.10;;;;;;5035770;28;20444;-73
2022/02/07 15:27:29;;;;;;;15.63;5.10;;;7.60;91.00;;;;;;5056708;28;20406;-73
2022/02/07 15:30:19;;;;;;;16.90;5.57;;;7.50;91.80;;;;;;5055387;28;20539;-74
2022/02/07 15:33:09;;;;;;;13.00;3.93;;;7.40;92.00;;;;;;5059458;28;20407;-72
2022/02/07 15:35:55;;;;;;;7.47;2.53;;;7.40;91.70;;;;;;5040111;28;20450;-73
2022/02/07 15:38:41;;;;;;;11.73;4.50;;;7.40;91.10;;;;;;5046095;28;20530;-73
2022/02/07 15:41:27;;;;;;;11.80;4.53;;;7.40;92.60;;;;;;5055127;28;20446;-73
2022/02/07 15:44:19;;;;;;;8.27;3.50;;;7.40;93.70;;;;;;5059325;28;20424;-72
2022/02/07 15:47:05;;;;;;;8.20;3.07;;;7.40;92.50;;;;;;5050597;28;20409;-72
2022/02/07 15:49:53;;;;;;;6.30;2.17;;;7.50;91.80;;;;;;5055370;28;20414;-73
2022/02/07 15:52:40;;;;;;;9.73;3.07;;;7.60;92.70;;;;;;5057399;28;20426;-73
2022/02/07 15:55:27;;;;;;;8.00;2.50;;;7.60;93.00;;;;;;5045258;28;20525;-72
2022/02/07 15:58:16;;;;;;;6.83;2.47;;;7.60;91.90;;;;;;5064115;28;20457;-72
2022/02/07 16:01:05;;;;;;;7.40;1.87;;;7.50;91.80;;;;;;5059808;28;20434;-72
2022/02/07 16:03:53;;;;;;;11.50;2.50;;;7.50;92.00;;;;;;5044901;28;20458;-72
2022/02/07 16:06:43;;;;;;;9.63;2.40;;;7.50;91.90;;;;;;5047886;28;20524;-71
2022/02/07 16:09:30;;;;;;;5.03;1.77;;;7.50;92.00;;;;;;5042727;28;20958;-71
2022/02/07 16:12:18;;;;;;;8.30;3.60;;;7.50;92.60;;;;;;5040348;28;22097;-72
2022/02/07 16:15:04;;;;;;;6.87;2.80;;;7.40;92.70;;;;;;5038721;28;20471;-72
2022/02/07 16:17:53;;;;;;;12.53;1.50;;;7.30;92.00;;;;;;5042679;28;20442;-69